SUR4101 SAAP-SABE
Flight info
| Callsign | SUR4101 |
|---|---|
| Flight time | 0h 51m |
| Altitude | 23000 |
| Route | ESKAD W6 SNT SNT8Q |
| Aircraft | DH8D/M-SDE2E3FGRY/H |
Departure
| Time | 2026-04-16 21:13 |
|---|---|
| Airport | General Urquiza Airport (SAAP) |
Arrival
| Time | 2026-04-16 22:05 |
|---|---|
| Airport | Aeroparque Jorge Newbery (SABE) |
| Time | Latitude | Longitude | Altitude | Speed | Heading |
|---|---|---|---|---|---|
| 2026-04-16 20:40 | -31.78967 | -60.48327 | 257 ft | 0 kts | 324° |
| 2026-04-16 21:02 | -31.78952 | -60.48338 | 256 ft | 3 kts | 343° |
| 2026-04-16 21:03 | -31.78910 | -60.48312 | 255 ft | 2 kts | 69° |
| 2026-04-16 21:03 | -31.78909 | -60.48303 | 254 ft | 1 kts | 80° |
| 2026-04-16 21:03 | -31.78908 | -60.48300 | 254 ft | 0 kts | 78° |
| 2026-04-16 21:08 | -31.78907 | -60.48285 | 254 ft | 4 kts | 90° |
| 2026-04-16 21:08 | -31.78912 | -60.48235 | 252 ft | 7 kts | 99° |
| 2026-04-16 21:09 | -31.78891 | -60.48169 | 249 ft | 10 kts | 28° |
| 2026-04-16 21:09 | -31.78812 | -60.48149 | 247 ft | 11 kts | 8° |
| 2026-04-16 21:09 | -31.78734 | -60.48135 | 247 ft | 11 kts | 8° |
| 2026-04-16 21:09 | -31.78656 | -60.48122 | 246 ft | 11 kts | 8° |
| 2026-04-16 21:10 | -31.78570 | -60.48102 | 243 ft | 13 kts | 22° |
| 2026-04-16 21:10 | -31.78532 | -60.48041 | 240 ft | 3 kts | 84° |
| 2026-04-16 21:10 | -31.78532 | -60.48034 | 240 ft | 0 kts | 88° |
| 2026-04-16 21:11 | -31.78532 | -60.48032 | 240 ft | 1 kts | 88° |
| 2026-04-16 21:11 | -31.78532 | -60.48011 | 240 ft | 3 kts | 96° |
| 2026-04-16 21:11 | -31.78538 | -60.47973 | 239 ft | 5 kts | 99° |
| 2026-04-16 21:11 | -31.78545 | -60.47927 | 239 ft | 5 kts | 101° |
| 2026-04-16 21:12 | -31.78559 | -60.47884 | 239 ft | 5 kts | 135° |
| 2026-04-16 21:12 | -31.78587 | -60.47878 | 240 ft | 3 kts | 201° |
| 2026-04-16 21:12 | -31.78600 | -60.47883 | 240 ft | 0 kts | 194° |
| 2026-04-16 21:12 | -31.78601 | -60.47883 | 240 ft | 0 kts | 194° |
| 2026-04-16 21:13 | -31.78738 | -60.47907 | 243 ft | 62 kts | 188° |
| 2026-04-16 21:13 | -31.79482 | -60.48037 | 240 ft | 145 kts | 187° |
| 2026-04-16 21:13 | -31.80619 | -60.48215 | 505 ft | 177 kts | 179° |
| 2026-04-16 21:13 | -31.81756 | -60.47823 | 1443 ft | 169 kts | 158° |
| 2026-04-16 21:14 | -31.82793 | -60.47252 | 2218 ft | 168 kts | 159° |
| 2026-04-16 21:14 | -31.83857 | -60.46701 | 2885 ft | 169 kts | 160° |
| 2026-04-16 21:14 | -31.84938 | -60.46170 | 3544 ft | 169 kts | 161° |
| 2026-04-16 21:14 | -31.86002 | -60.45669 | 4205 ft | 169 kts | 161° |
| 2026-04-16 21:15 | -31.87093 | -60.45169 | 4854 ft | 168 kts | 161° |
| 2026-04-16 21:15 | -31.88185 | -60.44684 | 5447 ft | 170 kts | 161° |
| 2026-04-16 21:15 | -31.89273 | -60.44210 | 6047 ft | 170 kts | 162° |
| 2026-04-16 21:15 | -31.90385 | -60.43733 | 6622 ft | 171 kts | 162° |
| 2026-04-16 21:16 | -31.91521 | -60.43251 | 7135 ft | 176 kts | 163° |
| 2026-04-16 21:16 | -31.92676 | -60.42764 | 7654 ft | 178 kts | 163° |
| 2026-04-16 21:16 | -31.93839 | -60.42276 | 8135 ft | 181 kts | 164° |
| 2026-04-16 21:16 | -31.95023 | -60.41782 | 8609 ft | 182 kts | 164° |
| 2026-04-16 21:17 | -31.96212 | -60.41287 | 9065 ft | 184 kts | 165° |
| 2026-04-16 21:17 | -31.97433 | -60.40780 | 9502 ft | 187 kts | 165° |
| 2026-04-16 21:17 | -31.98676 | -60.40265 | 9970 ft | 189 kts | 165° |
| 2026-04-16 21:17 | -31.99910 | -60.39754 | 10382 ft | 193 kts | 165° |
| 2026-04-16 21:18 | -32.01271 | -60.39199 | 10497 ft | 215 kts | 165° |
| 2026-04-16 21:18 | -32.02709 | -60.38605 | 10865 ft | 222 kts | 165° |
| 2026-04-16 21:18 | -32.04187 | -60.37991 | 11290 ft | 226 kts | 165° |
| 2026-04-16 21:18 | -32.05654 | -60.37380 | 11741 ft | 228 kts | 165° |
| 2026-04-16 21:19 | -32.07176 | -60.36748 | 12189 ft | 230 kts | 165° |
| 2026-04-16 21:19 | -32.08693 | -60.36119 | 12625 ft | 232 kts | 165° |
| 2026-04-16 21:19 | -32.10204 | -60.35492 | 13046 ft | 234 kts | 165° |
| 2026-04-16 21:19 | -32.11750 | -60.34851 | 13453 ft | 237 kts | 165° |
| 2026-04-16 21:20 | -32.13309 | -60.34206 | 13875 ft | 238 kts | 165° |
| 2026-04-16 21:20 | -32.14864 | -60.33561 | 14265 ft | 240 kts | 165° |
| 2026-04-16 21:20 | -32.16457 | -60.32902 | 14656 ft | 242 kts | 165° |
| 2026-04-16 21:20 | -32.18035 | -60.32248 | 15026 ft | 244 kts | 165° |
| 2026-04-16 21:21 | -32.19643 | -60.31582 | 15409 ft | 245 kts | 165° |
| 2026-04-16 21:21 | -32.21260 | -60.30912 | 15778 ft | 246 kts | 165° |
| 2026-04-16 21:21 | -32.22884 | -60.30239 | 16133 ft | 247 kts | 165° |
| 2026-04-16 21:21 | -32.24499 | -60.29569 | 16464 ft | 249 kts | 165° |
| 2026-04-16 21:22 | -32.26149 | -60.28885 | 16811 ft | 250 kts | 165° |
| 2026-04-16 21:22 | -32.27805 | -60.28198 | 17134 ft | 252 kts | 165° |
| 2026-04-16 21:22 | -32.29469 | -60.27508 | 17448 ft | 254 kts | 165° |
| 2026-04-16 21:22 | -32.31121 | -60.26821 | 17773 ft | 255 kts | 165° |
| 2026-04-16 21:23 | -32.32807 | -60.26122 | 18068 ft | 257 kts | 165° |
| 2026-04-16 21:23 | -32.34491 | -60.25422 | 18392 ft | 257 kts | 165° |
| 2026-04-16 21:23 | -32.36185 | -60.24718 | 18677 ft | 258 kts | 165° |
| 2026-04-16 21:23 | -32.37885 | -60.24011 | 18969 ft | 260 kts | 165° |
| 2026-04-16 21:24 | -32.39589 | -60.23303 | 19255 ft | 261 kts | 165° |
| 2026-04-16 21:24 | -32.41295 | -60.22594 | 19512 ft | 262 kts | 165° |
| 2026-04-16 21:24 | -32.43028 | -60.21873 | 19760 ft | 264 kts | 166° |
| 2026-04-16 21:24 | -32.44768 | -60.21148 | 20041 ft | 264 kts | 165° |
| 2026-04-16 21:25 | -32.46497 | -60.20428 | 20275 ft | 266 kts | 165° |
| 2026-04-16 21:25 | -32.48244 | -60.19699 | 20531 ft | 266 kts | 165° |
| 2026-04-16 21:25 | -32.50003 | -60.18967 | 20750 ft | 266 kts | 165° |
| 2026-04-16 21:25 | -32.51741 | -60.18241 | 20971 ft | 268 kts | 165° |
| 2026-04-16 21:26 | -32.53510 | -60.17503 | 21199 ft | 268 kts | 165° |
| 2026-04-16 21:26 | -32.55255 | -60.16774 | 21405 ft | 269 kts | 165° |
| 2026-04-16 21:26 | -32.57029 | -60.16034 | 21589 ft | 270 kts | 165° |
| 2026-04-16 21:26 | -32.58807 | -60.15292 | 21782 ft | 271 kts | 165° |
| 2026-04-16 21:27 | -32.60596 | -60.14544 | 21972 ft | 271 kts | 165° |
| 2026-04-16 21:27 | -32.62363 | -60.13806 | 22150 ft | 272 kts | 165° |
| 2026-04-16 21:27 | -32.64158 | -60.13055 | 22335 ft | 272 kts | 165° |
| 2026-04-16 21:27 | -32.65955 | -60.12303 | 22503 ft | 272 kts | 165° |
| 2026-04-16 21:28 | -32.67735 | -60.11556 | 22638 ft | 274 kts | 165° |
| 2026-04-16 21:28 | -32.69546 | -60.10777 | 22754 ft | 277 kts | 165° |
| 2026-04-16 21:28 | -32.71357 | -60.09993 | 22786 ft | 283 kts | 165° |
| 2026-04-16 21:28 | -32.73233 | -60.09180 | 22794 ft | 288 kts | 164° |
| 2026-04-16 21:29 | -32.75128 | -60.08359 | 22794 ft | 294 kts | 165° |
| 2026-04-16 21:29 | -32.77085 | -60.07510 | 22793 ft | 300 kts | 164° |
| 2026-04-16 21:29 | -32.79046 | -60.06662 | 22796 ft | 305 kts | 164° |
| 2026-04-16 21:29 | -32.81059 | -60.05806 | 22818 ft | 309 kts | 164° |
| 2026-04-16 21:30 | -32.83120 | -60.04942 | 22868 ft | 312 kts | 165° |
| 2026-04-16 21:30 | -32.85170 | -60.04096 | 22934 ft | 315 kts | 165° |
| 2026-04-16 21:30 | -32.87299 | -60.03228 | 23010 ft | 317 kts | 165° |
| 2026-04-16 21:30 | -32.89414 | -60.02372 | 23096 ft | 318 kts | 165° |
| 2026-04-16 21:31 | -32.91598 | -60.01492 | 23188 ft | 318 kts | 165° |
| 2026-04-16 21:31 | -32.93697 | -60.00650 | 23278 ft | 319 kts | 165° |
| 2026-04-16 21:31 | -32.95820 | -59.99797 | 23372 ft | 319 kts | 165° |
| 2026-04-16 21:31 | -32.98032 | -59.98904 | 23424 ft | 321 kts | 165° |
| 2026-04-16 21:32 | -33.00287 | -59.97995 | 23403 ft | 323 kts | 165° |
| 2026-04-16 21:32 | -33.02404 | -59.97140 | 23375 ft | 321 kts | 165° |
| 2026-04-16 21:32 | -33.04529 | -59.96273 | 23346 ft | 319 kts | 165° |
| 2026-04-16 21:32 | -33.06607 | -59.95421 | 23319 ft | 318 kts | 165° |
| 2026-04-16 21:33 | -33.08704 | -59.94560 | 23290 ft | 316 kts | 165° |
| 2026-04-16 21:33 | -33.10794 | -59.93704 | 23263 ft | 315 kts | 165° |
| 2026-04-16 21:33 | -33.12852 | -59.92859 | 23237 ft | 314 kts | 165° |
| 2026-04-16 21:33 | -33.14902 | -59.92021 | 23212 ft | 313 kts | 165° |
| 2026-04-16 21:34 | -33.16974 | -59.91177 | 23185 ft | 312 kts | 165° |
| 2026-04-16 21:34 | -33.19009 | -59.90350 | 23158 ft | 311 kts | 165° |
| 2026-04-16 21:34 | -33.21067 | -59.89520 | 23131 ft | 310 kts | 165° |
| 2026-04-16 21:34 | -33.23130 | -59.88691 | 23105 ft | 310 kts | 165° |
| 2026-04-16 21:35 | -33.25177 | -59.87867 | 23079 ft | 309 kts | 165° |
| 2026-04-16 21:35 | -33.27204 | -59.87053 | 23051 ft | 309 kts | 165° |
| 2026-04-16 21:35 | -33.29252 | -59.86229 | 23023 ft | 309 kts | 165° |
| 2026-04-16 21:35 | -33.31278 | -59.85414 | 22991 ft | 309 kts | 165° |
| 2026-04-16 21:36 | -33.33317 | -59.84588 | 22963 ft | 309 kts | 165° |
| 2026-04-16 21:36 | -33.35365 | -59.83757 | 22930 ft | 309 kts | 165° |
| 2026-04-16 21:36 | -33.37379 | -59.82932 | 22902 ft | 309 kts | 165° |
| 2026-04-16 21:36 | -33.39421 | -59.82097 | 22873 ft | 309 kts | 165° |
| 2026-04-16 21:37 | -33.41454 | -59.81265 | 22848 ft | 308 kts | 165° |
| 2026-04-16 21:37 | -33.43484 | -59.80433 | 22822 ft | 308 kts | 165° |
| 2026-04-16 21:37 | -33.45507 | -59.79607 | 22797 ft | 308 kts | 165° |
| 2026-04-16 21:37 | -33.47539 | -59.78779 | 22783 ft | 307 kts | 165° |
| 2026-04-16 21:38 | -33.49566 | -59.77956 | 22777 ft | 306 kts | 165° |
| 2026-04-16 21:38 | -33.51586 | -59.77137 | 22774 ft | 306 kts | 165° |
| 2026-04-16 21:38 | -33.53597 | -59.76326 | 22775 ft | 305 kts | 165° |
| 2026-04-16 21:38 | -33.55606 | -59.75515 | 22775 ft | 304 kts | 165° |
| 2026-04-16 21:39 | -33.57621 | -59.74703 | 22779 ft | 303 kts | 165° |
| 2026-04-16 21:39 | -33.59615 | -59.73897 | 22777 ft | 302 kts | 165° |
| 2026-04-16 21:39 | -33.61619 | -59.73087 | 22774 ft | 302 kts | 165° |
| 2026-04-16 21:39 | -33.63596 | -59.72289 | 22777 ft | 301 kts | 165° |
| 2026-04-16 21:40 | -33.65576 | -59.71402 | 22764 ft | 304 kts | 157° |
| 2026-04-16 21:40 | -33.67366 | -59.70065 | 22748 ft | 306 kts | 151° |
| 2026-04-16 21:40 | -33.69175 | -59.68717 | 22740 ft | 305 kts | 154° |
| 2026-04-16 21:40 | -33.71032 | -59.67484 | 22731 ft | 304 kts | 156° |
| 2026-04-16 21:41 | -33.72902 | -59.66373 | 22723 ft | 303 kts | 159° |
| 2026-04-16 21:41 | -33.74833 | -59.65318 | 22715 ft | 302 kts | 160° |
| 2026-04-16 21:41 | -33.76753 | -59.64328 | 22712 ft | 301 kts | 161° |
| 2026-04-16 21:41 | -33.78706 | -59.63365 | 22710 ft | 301 kts | 162° |
| 2026-04-16 21:42 | -33.80637 | -59.62445 | 22709 ft | 300 kts | 162° |
| 2026-04-16 21:42 | -33.82597 | -59.61533 | 22709 ft | 300 kts | 163° |
| 2026-04-16 21:42 | -33.84529 | -59.60652 | 22708 ft | 300 kts | 163° |
| 2026-04-16 21:42 | -33.86494 | -59.59769 | 22612 ft | 303 kts | 163° |
| 2026-04-16 21:43 | -33.88506 | -59.58876 | 22331 ft | 313 kts | 163° |
| 2026-04-16 21:43 | -33.90564 | -59.57969 | 21969 ft | 315 kts | 163° |
| 2026-04-16 21:43 | -33.92614 | -59.57064 | 21596 ft | 312 kts | 163° |
| 2026-04-16 21:43 | -33.94650 | -59.56168 | 21223 ft | 309 kts | 163° |
| 2026-04-16 21:44 | -33.96652 | -59.55290 | 20856 ft | 307 kts | 163° |
| 2026-04-16 21:44 | -33.98661 | -59.54412 | 20486 ft | 305 kts | 163° |
| 2026-04-16 21:44 | -34.00634 | -59.53551 | 20121 ft | 303 kts | 163° |
| 2026-04-16 21:44 | -34.02623 | -59.52685 | 19752 ft | 301 kts | 163° |
| 2026-04-16 21:45 | -34.04569 | -59.51838 | 19394 ft | 300 kts | 163° |
| 2026-04-16 21:45 | -34.06535 | -59.50983 | 19032 ft | 298 kts | 163° |
| 2026-04-16 21:45 | -34.08467 | -59.50143 | 18670 ft | 297 kts | 163° |
| 2026-04-16 21:45 | -34.10415 | -59.49295 | 18307 ft | 295 kts | 163° |
| 2026-04-16 21:46 | -34.12356 | -59.48451 | 17950 ft | 294 kts | 163° |
| 2026-04-16 21:46 | -34.14258 | -59.47624 | 17595 ft | 293 kts | 163° |
| 2026-04-16 21:46 | -34.16182 | -59.46787 | 17239 ft | 292 kts | 163° |
| 2026-04-16 21:46 | -34.18095 | -59.45954 | 16885 ft | 291 kts | 163° |
| 2026-04-16 21:47 | -34.20000 | -59.45115 | 16495 ft | 292 kts | 162° |
| 2026-04-16 21:47 | -34.21681 | -59.43772 | 16054 ft | 298 kts | 134° |
| 2026-04-16 21:47 | -34.22608 | -59.41541 | 15732 ft | 301 kts | 108° |
| 2026-04-16 21:47 | -34.23038 | -59.39056 | 15371 ft | 302 kts | 104° |
| 2026-04-16 21:48 | -34.23420 | -59.36560 | 14999 ft | 301 kts | 103° |
| 2026-04-16 21:48 | -34.23790 | -59.34101 | 14638 ft | 301 kts | 103° |
| 2026-04-16 21:48 | -34.24166 | -59.31609 | 14273 ft | 301 kts | 103° |
| 2026-04-16 21:48 | -34.24539 | -59.29139 | 13910 ft | 300 kts | 103° |
| 2026-04-16 21:49 | -34.24909 | -59.26685 | 13548 ft | 299 kts | 103° |
| 2026-04-16 21:49 | -34.25282 | -59.24216 | 13187 ft | 299 kts | 103° |
| 2026-04-16 21:49 | -34.25655 | -59.21750 | 12824 ft | 298 kts | 103° |
| 2026-04-16 21:49 | -34.26025 | -59.19302 | 12463 ft | 297 kts | 103° |
| 2026-04-16 21:50 | -34.26390 | -59.16872 | 12107 ft | 294 kts | 104° |
| 2026-04-16 21:50 | -34.26755 | -59.14442 | 11747 ft | 291 kts | 104° |
| 2026-04-16 21:50 | -34.27110 | -59.12078 | 11396 ft | 285 kts | 104° |
| 2026-04-16 21:50 | -34.27451 | -59.09776 | 11051 ft | 276 kts | 104° |
| 2026-04-16 21:51 | -34.27787 | -59.07516 | 10718 ft | 269 kts | 104° |
| 2026-04-16 21:51 | -34.28114 | -59.05323 | 10394 ft | 261 kts | 105° |
| 2026-04-16 21:51 | -34.28426 | -59.03222 | 10085 ft | 253 kts | 105° |
| 2026-04-16 21:51 | -34.28735 | -59.01144 | 9780 ft | 245 kts | 105° |
| 2026-04-16 21:52 | -34.29029 | -58.99163 | 9483 ft | 236 kts | 106° |
| 2026-04-16 21:52 | -34.29314 | -58.97239 | 9211 ft | 228 kts | 106° |
| 2026-04-16 21:52 | -34.29588 | -58.95393 | 8931 ft | 219 kts | 106° |
| 2026-04-16 21:52 | -34.29848 | -58.93633 | 8668 ft | 209 kts | 106° |
| 2026-04-16 21:53 | -34.30093 | -58.91960 | 8409 ft | 195 kts | 106° |
| 2026-04-16 21:53 | -34.30318 | -58.90402 | 8243 ft | 174 kts | 107° |
| 2026-04-16 21:53 | -34.30535 | -58.88974 | 8115 ft | 175 kts | 109° |
| 2026-04-16 21:53 | -34.30779 | -58.87486 | 7967 ft | 188 kts | 108° |
| 2026-04-16 21:54 | -34.31034 | -58.85884 | 7772 ft | 203 kts | 107° |
| 2026-04-16 21:54 | -34.31302 | -58.84146 | 7541 ft | 214 kts | 106° |
| 2026-04-16 21:54 | -34.31572 | -58.82349 | 7291 ft | 223 kts | 105° |
| 2026-04-16 21:54 | -34.31845 | -58.80492 | 6981 ft | 226 kts | 105° |
| 2026-04-16 21:55 | -34.32117 | -58.78621 | 6694 ft | 225 kts | 105° |
| 2026-04-16 21:55 | -34.32403 | -58.76809 | 6406 ft | 212 kts | 112° |
| 2026-04-16 21:55 | -34.33112 | -58.75400 | 6169 ft | 186 kts | 138° |
| 2026-04-16 21:55 | -34.33958 | -58.74320 | 5943 ft | 168 kts | 139° |
| 2026-04-16 21:56 | -34.34721 | -58.73356 | 5769 ft | 150 kts | 140° |
| 2026-04-16 21:56 | -34.35434 | -58.72477 | 5585 ft | 142 kts | 142° |
| 2026-04-16 21:56 | -34.36128 | -58.71635 | 5422 ft | 141 kts | 142° |
| 2026-04-16 21:56 | -34.36823 | -58.70790 | 5257 ft | 141 kts | 142° |
| 2026-04-16 21:57 | -34.37513 | -58.69947 | 5088 ft | 141 kts | 142° |
| 2026-04-16 21:57 | -34.38203 | -58.69099 | 4920 ft | 141 kts | 142° |
| 2026-04-16 21:57 | -34.38893 | -58.68248 | 4751 ft | 141 kts | 142° |
| 2026-04-16 21:57 | -34.39582 | -58.67398 | 4582 ft | 141 kts | 142° |
| 2026-04-16 21:58 | -34.40263 | -58.66554 | 4415 ft | 141 kts | 141° |
| 2026-04-16 21:58 | -34.40950 | -58.65702 | 4243 ft | 142 kts | 141° |
| 2026-04-16 21:58 | -34.41645 | -58.64838 | 4071 ft | 142 kts | 141° |
| 2026-04-16 21:58 | -34.42334 | -58.63981 | 3901 ft | 142 kts | 141° |
| 2026-04-16 21:59 | -34.43023 | -58.63123 | 3727 ft | 142 kts | 141° |
| 2026-04-16 21:59 | -34.43707 | -58.62271 | 3555 ft | 143 kts | 141° |
| 2026-04-16 21:59 | -34.44407 | -58.61400 | 3380 ft | 143 kts | 141° |
| 2026-04-16 21:59 | -34.45089 | -58.60547 | 3204 ft | 142 kts | 141° |
| 2026-04-16 22:00 | -34.45770 | -58.59692 | 3033 ft | 140 kts | 139° |
| 2026-04-16 22:00 | -34.46373 | -58.58749 | 2896 ft | 139 kts | 132° |
| 2026-04-16 22:00 | -34.46908 | -58.57786 | 2738 ft | 134 kts | 131° |
| 2026-04-16 22:00 | -34.47410 | -58.56865 | 2571 ft | 124 kts | 132° |
| 2026-04-16 22:01 | -34.47872 | -58.56026 | 2361 ft | 120 kts | 132° |
| 2026-04-16 22:01 | -34.48352 | -58.55173 | 2028 ft | 122 kts | 133° |
| 2026-04-16 22:01 | -34.48829 | -58.54322 | 1825 ft | 123 kts | 133° |
| 2026-04-16 22:01 | -34.49313 | -58.53468 | 1691 ft | 125 kts | 132° |
| 2026-04-16 22:02 | -34.49801 | -58.52597 | 1572 ft | 125 kts | 132° |
| 2026-04-16 22:02 | -34.50296 | -58.51710 | 1453 ft | 125 kts | 131° |
| 2026-04-16 22:02 | -34.50765 | -58.50823 | 1325 ft | 125 kts | 126° |
| 2026-04-16 22:02 | -34.51223 | -58.49916 | 1160 ft | 125 kts | 127° |
| 2026-04-16 22:03 | -34.51716 | -58.49059 | 1008 ft | 124 kts | 131° |
| 2026-04-16 22:03 | -34.52205 | -58.48199 | 862 ft | 125 kts | 128° |
| 2026-04-16 22:03 | -34.52686 | -58.47332 | 791 ft | 123 kts | 125° |
| 2026-04-16 22:03 | -34.53159 | -58.46468 | 656 ft | 125 kts | 127° |
| 2026-04-16 22:04 | -34.53657 | -58.45575 | 635 ft | 126 kts | 125° |
| 2026-04-16 22:04 | -34.54164 | -58.44687 | 476 ft | 131 kts | 127° |
| 2026-04-16 22:04 | -34.54680 | -58.43787 | 324 ft | 130 kts | 121° |
| 2026-04-16 22:04 | -34.55166 | -58.42919 | 167 ft | 118 kts | 124° |
| 2026-04-16 22:05 | -34.55621 | -58.42107 | 29 ft | 112 kts | 126° |
| 2026-04-16 22:05 | -34.55986 | -58.41464 | 33 ft | 72 kts | 124° |
| 2026-04-16 22:05 | -34.56176 | -58.41122 | 35 ft | 30 kts | 129° |
| 2026-04-16 22:05 | -34.56249 | -58.41123 | 36 ft | 6 kts | 213° |
| 2026-04-16 22:06 | -34.56278 | -58.41146 | 36 ft | 3 kts | 214° |
| 2026-04-16 22:06 | -34.56298 | -58.41163 | 36 ft | 0 kts | 214° |
| 2026-04-16 22:06 | -34.56304 | -58.41167 | 36 ft | 1 kts | 214° |
| 2026-04-16 22:07 | -34.56313 | -58.41175 | 36 ft | 1 kts | 215° |
| 2026-04-16 22:07 | -34.56318 | -58.41179 | 36 ft | 0 kts | 216° |
| 2026-04-16 22:07 | -34.56329 | -58.41193 | 37 ft | 2 kts | 236° |
| 2026-04-16 22:07 | -34.56332 | -58.41210 | 37 ft | 3 kts | 271° |
| 2026-04-16 22:08 | -34.56319 | -58.41250 | 38 ft | 5 kts | 302° |
| 2026-04-16 22:08 | -34.56300 | -58.41287 | 38 ft | 4 kts | 305° |
| 2026-04-16 22:08 | -34.56269 | -58.41295 | 38 ft | 5 kts | 26° |
| 2026-04-16 22:08 | -34.56258 | -58.41288 | 37 ft | 0 kts | 31° |